Seneca, South Dakota
Current Conditions -  °F | °C
As of 9:52 AM on Thursday 23 Oct 2014 (Local Time) from KMBG Reporting Station
Clear Clear  
Wind Chill: 45°   Ceiling: Unl
Heat Index: 48°   Visibility: 10mi
Dew Point: 42°   Wind: 7mph
Humidity: 80%   Direction: 170°S
Pressure: 29.93"   Gusts: NA
Location:  45.06°N, 99.51°W
Report Text: KMBG 231452Z AUTO 17006KT 10SM CLR 09/06 A2993 RMK AO2 SLP143 T00890056 53000
Loading
Personal Weather Stations






























Interactive Weather Map
Tropical Storm Tracking
New forecast layout! Learn more

10-Day Weather Forecast

Advertisements
Track Severe Weather on mobile